sensor_id;sensor_type;location;lat;lon;timestamp;temperature;humidity
71672;DHT22;67659;45.554;11.812;2023-05-07T00:00:58;24.40;77.80
71672;DHT22;67659;45.554;11.812;2023-05-07T00:03:25;24.40;77.90
71672;DHT22;67659;45.554;11.812;2023-05-07T00:05:52;24.40;77.50
71672;DHT22;67659;45.554;11.812;2023-05-07T00:08:18;24.40;78.00
71672;DHT22;67659;45.554;11.812;2023-05-07T00:10:45;24.40;77.70
71672;DHT22;67659;45.554;11.812;2023-05-07T00:13:12;24.40;77.80
71672;DHT22;67659;45.554;11.812;2023-05-07T00:15:38;24.40;77.80
71672;DHT22;67659;45.554;11.812;2023-05-07T00:18:04;24.40;77.80
71672;DHT22;67659;45.554;11.812;2023-05-07T00:20:30;24.40;77.80
71672;DHT22;67659;45.554;11.812;2023-05-07T00:22:56;24.40;77.70
71672;DHT22;67659;45.554;11.812;2023-05-07T00:25:22;24.40;77.80
71672;DHT22;67659;45.554;11.812;2023-05-07T00:27:48;24.50;77.90
71672;DHT22;67659;45.554;11.812;2023-05-07T00:30:14;24.40;77.80
71672;DHT22;67659;45.554;11.812;2023-05-07T00:32:40;24.40;77.80
71672;DHT22;67659;45.554;11.812;2023-05-07T00:35:07;24.40;77.70
71672;DHT22;67659;45.554;11.812;2023-05-07T00:37:33;24.40;77.80
71672;DHT22;67659;45.554;11.812;2023-05-07T00:39:59;24.30;77.80
71672;DHT22;67659;45.554;11.812;2023-05-07T00:42:25;24.40;77.80
71672;DHT22;67659;45.554;11.812;2023-05-07T00:44:51;24.40;77.50
71672;DHT22;67659;45.554;11.812;2023-05-07T00:47:17;24.40;77.70
71672;DHT22;67659;45.554;11.812;2023-05-07T00:49:43;24.30;77.70
71672;DHT22;67659;45.554;11.812;2023-05-07T00:52:13;24.30;77.70
71672;DHT22;67659;45.554;11.812;2023-05-07T00:54:41;24.30;77.70
71672;DHT22;67659;45.554;11.812;2023-05-07T00:57:09;24.30;77.70
71672;DHT22;67659;45.554;11.812;2023-05-07T00:59:37;24.40;77.90
71672;DHT22;67659;45.554;11.812;2023-05-07T01:02:03;24.40;77.60
71672;DHT22;67659;45.554;11.812;2023-05-07T01:04:29;24.30;77.70
71672;DHT22;67659;45.554;11.812;2023-05-07T01:06:55;24.30;77.80
71672;DHT22;67659;45.554;11.812;2023-05-07T01:09:23;24.30;77.80
71672;DHT22;67659;45.554;11.812;2023-05-07T01:11:49;24.30;78.00
71672;DHT22;67659;45.554;11.812;2023-05-07T01:14:16;24.40;77.80
71672;DHT22;67659;45.554;11.812;2023-05-07T01:16:42;24.30;77.80
71672;DHT22;67659;45.554;11.812;2023-05-07T01:19:08;24.40;77.90
71672;DHT22;67659;45.554;11.812;2023-05-07T01:21:37;24.30;77.90
71672;DHT22;67659;45.554;11.812;2023-05-07T01:24:04;24.30;77.90
71672;DHT22;67659;45.554;11.812;2023-05-07T01:26:30;24.30;77.70
71672;DHT22;67659;45.554;11.812;2023-05-07T01:28:56;24.30;78.00
71672;DHT22;67659;45.554;11.812;2023-05-07T01:31:23;24.30;77.90
71672;DHT22;67659;45.554;11.812;2023-05-07T01:33:51;24.30;77.80
71672;DHT22;67659;45.554;11.812;2023-05-07T01:36:18;24.30;77.80
71672;DHT22;67659;45.554;11.812;2023-05-07T01:38:46;24.30;77.90
71672;DHT22;67659;45.554;11.812;2023-05-07T01:41:12;24.20;77.80
71672;DHT22;67659;45.554;11.812;2023-05-07T01:43:40;24.30;77.80
71672;DHT22;67659;45.554;11.812;2023-05-07T01:46:08;24.30;77.80
71672;DHT22;67659;45.554;11.812;2023-05-07T01:48:35;24.30;77.90
71672;DHT22;67659;45.554;11.812;2023-05-07T01:51:02;24.20;77.80
71672;DHT22;67659;45.554;11.812;2023-05-07T01:53:28;24.30;78.10
71672;DHT22;67659;45.554;11.812;2023-05-07T01:55:54;24.30;77.90
71672;DHT22;67659;45.554;11.812;2023-05-07T01:58:20;24.40;77.80
71672;DHT22;67659;45.554;11.812;2023-05-07T02:00:46;24.30;77.80
71672;DHT22;67659;45.554;11.812;2023-05-07T02:03:12;24.20;77.90
71672;DHT22;67659;45.554;11.812;2023-05-07T02:05:37;24.30;77.70
71672;DHT22;67659;45.554;11.812;2023-05-07T02:08:03;24.30;77.90
71672;DHT22;67659;45.554;11.812;2023-05-07T02:10:29;24.30;77.70
71672;DHT22;67659;45.554;11.812;2023-05-07T02:12:55;24.30;77.90
71672;DHT22;67659;45.554;11.812;2023-05-07T02:15:21;24.20;77.90
71672;DHT22;67659;45.554;11.812;2023-05-07T02:18:07;24.20;77.70
71672;DHT22;67659;45.554;11.812;2023-05-07T02:20:34;24.20;77.60
71672;DHT22;67659;45.554;11.812;2023-05-07T02:23:00;24.30;78.00
71672;DHT22;67659;45.554;11.812;2023-05-07T02:25:26;24.20;77.80
71672;DHT22;67659;45.554;11.812;2023-05-07T02:27:52;24.20;77.80
71672;DHT22;67659;45.554;11.812;2023-05-07T02:30:18;24.20;77.90
71672;DHT22;67659;45.554;11.812;2023-05-07T02:32:45;24.20;77.90
71672;DHT22;67659;45.554;11.812;2023-05-07T02:35:11;24.30;77.70
71672;DHT22;67659;45.554;11.812;2023-05-07T02:37:37;24.30;77.80
71672;DHT22;67659;45.554;11.812;2023-05-07T02:40:03;24.20;77.50
71672;DHT22;67659;45.554;11.812;2023-05-07T02:42:30;24.30;77.50
71672;DHT22;67659;45.554;11.812;2023-05-07T02:44:56;24.20;77.90
71672;DHT22;67659;45.554;11.812;2023-05-07T02:47:22;24.20;77.70
71672;DHT22;67659;45.554;11.812;2023-05-07T02:49:48;24.20;77.80
71672;DHT22;67659;45.554;11.812;2023-05-07T02:52:13;24.30;77.60
71672;DHT22;67659;45.554;11.812;2023-05-07T02:54:39;24.20;77.50
71672;DHT22;67659;45.554;11.812;2023-05-07T02:57:05;24.10;77.80
71672;DHT22;67659;45.554;11.812;2023-05-07T02:59:31;24.20;77.90
71672;DHT22;67659;45.554;11.812;2023-05-07T03:01:57;24.30;77.90
71672;DHT22;67659;45.554;11.812;2023-05-07T03:04:23;24.20;77.70
71672;DHT22;67659;45.554;11.812;2023-05-07T03:06:48;24.20;77.80
71672;DHT22;67659;45.554;11.812;2023-05-07T03:09:14;24.20;77.90
71672;DHT22;67659;45.554;11.812;2023-05-07T03:11:40;24.20;77.80
71672;DHT22;67659;45.554;11.812;2023-05-07T03:14:07;24.20;77.60
71672;DHT22;67659;45.554;11.812;2023-05-07T03:16:33;24.20;77.80
71672;DHT22;67659;45.554;11.812;2023-05-07T03:18:59;24.30;77.80
71672;DHT22;67659;45.554;11.812;2023-05-07T03:21:25;24.10;77.70
71672;DHT22;67659;45.554;11.812;2023-05-07T03:23:51;24.20;77.70
71672;DHT22;67659;45.554;11.812;2023-05-07T03:26:17;24.20;77.90
71672;DHT22;67659;45.554;11.812;2023-05-07T03:28:43;24.30;77.70
71672;DHT22;67659;45.554;11.812;2023-05-07T03:31:09;24.10;77.90
71672;DHT22;67659;45.554;11.812;2023-05-07T03:33:38;24.20;77.80
71672;DHT22;67659;45.554;11.812;2023-05-07T03:36:04;24.20;77.80
71672;DHT22;67659;45.554;11.812;2023-05-07T03:38:30;24.20;77.90
71672;DHT22;67659;45.554;11.812;2023-05-07T03:40:56;24.20;77.90
71672;DHT22;67659;45.554;11.812;2023-05-07T03:43:22;24.10;78.00
71672;DHT22;67659;45.554;11.812;2023-05-07T03:45:48;24.10;77.90
71672;DHT22;67659;45.554;11.812;2023-05-07T03:48:13;24.20;77.80
71672;DHT22;67659;45.554;11.812;2023-05-07T03:50:39;24.20;77.90
71672;DHT22;67659;45.554;11.812;2023-05-07T03:53:05;24.20;77.90
71672;DHT22;67659;45.554;11.812;2023-05-07T03:55:31;24.20;77.70
71672;DHT22;67659;45.554;11.812;2023-05-07T03:57:57;24.20;78.10
71672;DHT22;67659;45.554;11.812;2023-05-07T04:00:23;24.10;77.80
71672;DHT22;67659;45.554;11.812;2023-05-07T04:02:49;24.20;77.90
71672;DHT22;67659;45.554;11.812;2023-05-07T04:05:15;24.10;77.90
71672;DHT22;67659;45.554;11.812;2023-05-07T04:07:41;24.10;77.90
71672;DHT22;67659;45.554;11.812;2023-05-07T04:10:07;24.10;77.90
71672;DHT22;67659;45.554;11.812;2023-05-07T04:12:33;24.20;77.80
71672;DHT22;67659;45.554;11.812;2023-05-07T04:14:59;24.10;78.00
71672;DHT22;67659;45.554;11.812;2023-05-07T04:17:25;24.10;77.70
71672;DHT22;67659;45.554;11.812;2023-05-07T04:19:51;24.10;77.70
71672;DHT22;67659;45.554;11.812;2023-05-07T04:22:17;24.10;77.70
71672;DHT22;67659;45.554;11.812;2023-05-07T04:24:43;24.10;78.00
71672;DHT22;67659;45.554;11.812;2023-05-07T04:27:08;24.20;77.90
71672;DHT22;67659;45.554;11.812;2023-05-07T04:29:34;24.10;77.90
71672;DHT22;67659;45.554;11.812;2023-05-07T04:32:00;24.20;77.80
71672;DHT22;67659;45.554;11.812;2023-05-07T04:34:27;24.20;77.80
71672;DHT22;67659;45.554;11.812;2023-05-07T04:36:52;24.10;77.80
71672;DHT22;67659;45.554;11.812;2023-05-07T04:39:18;24.10;77.90
71672;DHT22;67659;45.554;11.812;2023-05-07T04:41:44;24.20;77.80
71672;DHT22;67659;45.554;11.812;2023-05-07T04:44:10;24.10;77.40
71672;DHT22;67659;45.554;11.812;2023-05-07T04:46:36;24.10;77.60
71672;DHT22;67659;45.554;11.812;2023-05-07T04:49:02;24.10;77.60
71672;DHT22;67659;45.554;11.812;2023-05-07T04:51:28;24.10;77.60
71672;DHT22;67659;45.554;11.812;2023-05-07T04:53:54;24.10;77.50
71672;DHT22;67659;45.554;11.812;2023-05-07T04:56:20;24.10;77.70
71672;DHT22;67659;45.554;11.812;2023-05-07T04:58:46;24.10;77.60
71672;DHT22;67659;45.554;11.812;2023-05-07T05:01:12;24.10;77.60
71672;DHT22;67659;45.554;11.812;2023-05-07T05:03:38;24.10;77.40
71672;DHT22;67659;45.554;11.812;2023-05-07T05:06:05;24.10;77.40
71672;DHT22;67659;45.554;11.812;2023-05-07T05:08:31;24.10;77.60
71672;DHT22;67659;45.554;11.812;2023-05-07T05:10:56;24.00;77.40
71672;DHT22;67659;45.554;11.812;2023-05-07T05:13:22;24.10;77.50
71672;DHT22;67659;45.554;11.812;2023-05-07T05:15:48;24.10;77.30
71672;DHT22;67659;45.554;11.812;2023-05-07T05:18:15;24.00;77.60
71672;DHT22;67659;45.554;11.812;2023-05-07T05:20:41;24.10;77.40
71672;DHT22;67659;45.554;11.812;2023-05-07T05:23:08;24.00;77.40
71672;DHT22;67659;45.554;11.812;2023-05-07T05:25:34;24.10;77.40
71672;DHT22;67659;45.554;11.812;2023-05-07T05:27:59;24.00;77.30
71672;DHT22;67659;45.554;11.812;2023-05-07T05:30:25;24.10;77.50
71672;DHT22;67659;45.554;11.812;2023-05-07T05:32:51;24.00;77.20
71672;DHT22;67659;45.554;11.812;2023-05-07T05:35:17;24.00;77.20
71672;DHT22;67659;45.554;11.812;2023-05-07T05:37:43;24.00;77.20
71672;DHT22;67659;45.554;11.812;2023-05-07T05:40:09;24.10;77.30
71672;DHT22;67659;45.554;11.812;2023-05-07T05:42:35;24.10;77.40
71672;DHT22;67659;45.554;11.812;2023-05-07T05:45:01;24.00;77.70
71672;DHT22;67659;45.554;11.812;2023-05-07T05:47:27;24.10;77.60
71672;DHT22;67659;45.554;11.812;2023-05-07T05:49:53;24.10;77.50
71672;DHT22;67659;45.554;11.812;2023-05-07T05:52:19;24.10;77.30
71672;DHT22;67659;45.554;11.812;2023-05-07T05:54:45;24.10;77.40
71672;DHT22;67659;45.554;11.812;2023-05-07T05:59:47;24.00;77.60
71672;DHT22;67659;45.554;11.812;2023-05-07T06:02:13;24.00;77.50
71672;DHT22;67659;45.554;11.812;2023-05-07T06:04:38;24.10;77.40
71672;DHT22;67659;45.554;11.812;2023-05-07T06:07:04;24.10;77.30
71672;DHT22;67659;45.554;11.812;2023-05-07T06:09:30;24.10;77.60
71672;DHT22;67659;45.554;11.812;2023-05-07T06:11:56;24.00;77.30
71672;DHT22;67659;45.554;11.812;2023-05-07T06:14:22;24.10;77.40
71672;DHT22;67659;45.554;11.812;2023-05-07T06:16:48;24.10;77.50
71672;DHT22;67659;45.554;11.812;2023-05-07T06:19:14;24.10;77.50
71672;DHT22;67659;45.554;11.812;2023-05-07T06:21:39;24.00;77.60
71672;DHT22;67659;45.554;11.812;2023-05-07T06:24:06;24.10;77.30
71672;DHT22;67659;45.554;11.812;2023-05-07T06:26:32;24.10;77.50
71672;DHT22;67659;45.554;11.812;2023-05-07T06:28:58;24.10;77.60
71672;DHT22;67659;45.554;11.812;2023-05-07T06:31:30;24.10;77.50
71672;DHT22;67659;45.554;11.812;2023-05-07T06:33:57;24.10;77.60
71672;DHT22;67659;45.554;11.812;2023-05-07T06:36:24;24.00;77.60
71672;DHT22;67659;45.554;11.812;2023-05-07T06:38:51;24.10;77.60
71672;DHT22;67659;45.554;11.812;2023-05-07T06:41:18;24.00;77.50
71672;DHT22;67659;45.554;11.812;2023-05-07T06:43:44;24.10;77.50
71672;DHT22;67659;45.554;11.812;2023-05-07T06:46:10;24.10;77.40
71672;DHT22;67659;45.554;11.812;2023-05-07T06:48:36;24.10;77.60
71672;DHT22;67659;45.554;11.812;2023-05-07T06:51:01;24.10;77.60
71672;DHT22;67659;45.554;11.812;2023-05-07T06:53:27;24.10;77.50
71672;DHT22;67659;45.554;11.812;2023-05-07T06:55:54;24.10;77.50
71672;DHT22;67659;45.554;11.812;2023-05-07T06:58:20;24.10;77.40
71672;DHT22;67659;45.554;11.812;2023-05-07T07:00:46;24.10;77.40
71672;DHT22;67659;45.554;11.812;2023-05-07T07:03:12;24.00;77.40
71672;DHT22;67659;45.554;11.812;2023-05-07T07:05:39;24.10;77.40
71672;DHT22;67659;45.554;11.812;2023-05-07T07:08:05;24.20;77.50
71672;DHT22;67659;45.554;11.812;2023-05-07T07:10:31;24.10;77.40
71672;DHT22;67659;45.554;11.812;2023-05-07T07:12:57;24.10;77.40
71672;DHT22;67659;45.554;11.812;2023-05-07T07:15:23;24.20;77.40
71672;DHT22;67659;45.554;11.812;2023-05-07T07:17:50;24.10;77.40
71672;DHT22;67659;45.554;11.812;2023-05-07T07:20:16;24.20;77.30
71672;DHT22;67659;45.554;11.812;2023-05-07T07:22:42;24.20;77.40
71672;DHT22;67659;45.554;11.812;2023-05-07T07:25:09;24.10;77.50
71672;DHT22;67659;45.554;11.812;2023-05-07T07:27:35;24.10;77.70
71672;DHT22;67659;45.554;11.812;2023-05-07T07:30:01;24.10;77.20
71672;DHT22;67659;45.554;11.812;2023-05-07T07:32:27;24.20;77.50
71672;DHT22;67659;45.554;11.812;2023-05-07T07:34:53;24.20;77.50
71672;DHT22;67659;45.554;11.812;2023-05-07T07:37:19;24.30;77.70
71672;DHT22;67659;45.554;11.812;2023-05-07T07:39:45;24.20;77.40
71672;DHT22;67659;45.554;11.812;2023-05-07T07:42:11;24.20;77.70
71672;DHT22;67659;45.554;11.812;2023-05-07T07:44:37;24.20;77.80
71672;DHT22;67659;45.554;11.812;2023-05-07T07:47:05;24.30;77.70
71672;DHT22;67659;45.554;11.812;2023-05-07T07:49:31;24.20;77.80
71672;DHT22;67659;45.554;11.812;2023-05-07T07:51:57;24.30;78.00
71672;DHT22;67659;45.554;11.812;2023-05-07T07:54:25;24.20;77.70
71672;DHT22;67659;45.554;11.812;2023-05-07T07:56:51;24.20;78.00
71672;DHT22;67659;45.554;11.812;2023-05-07T07:59:17;24.30;77.80
71672;DHT22;67659;45.554;11.812;2023-05-07T08:01:44;24.40;78.10
71672;DHT22;67659;45.554;11.812;2023-05-07T08:04:10;24.30;78.00
71672;DHT22;67659;45.554;11.812;2023-05-07T08:06:36;24.40;78.10
71672;DHT22;67659;45.554;11.812;2023-05-07T08:09:03;24.40;78.10
71672;DHT22;67659;45.554;11.812;2023-05-07T08:11:29;24.40;77.90
71672;DHT22;67659;45.554;11.812;2023-05-07T08:13:55;24.30;77.80
71672;DHT22;67659;45.554;11.812;2023-05-07T08:16:21;24.30;77.80
71672;DHT22;67659;45.554;11.812;2023-05-07T08:18:47;24.40;78.00
71672;DHT22;67659;45.554;11.812;2023-05-07T08:21:13;24.40;77.90
71672;DHT22;67659;45.554;11.812;2023-05-07T08:23:39;24.40;78.00
71672;DHT22;67659;45.554;11.812;2023-05-07T08:26:05;24.40;77.90
71672;DHT22;67659;45.554;11.812;2023-05-07T08:28:31;24.50;77.90
71672;DHT22;67659;45.554;11.812;2023-05-07T08:30:57;24.30;77.90
71672;DHT22;67659;45.554;11.812;2023-05-07T08:33:25;24.40;78.00
71672;DHT22;67659;45.554;11.812;2023-05-07T08:35:51;24.40;77.90
71672;DHT22;67659;45.554;11.812;2023-05-07T08:38:17;24.40;77.90
71672;DHT22;67659;45.554;11.812;2023-05-07T08:40:43;24.40;78.00
71672;DHT22;67659;45.554;11.812;2023-05-07T08:43:13;24.40;78.20
71672;DHT22;67659;45.554;11.812;2023-05-07T08:45:41;24.40;78.20
71672;DHT22;67659;45.554;11.812;2023-05-07T08:48:15;24.50;78.10
71672;DHT22;67659;45.554;11.812;2023-05-07T08:50:42;24.50;77.90
71672;DHT22;67659;45.554;11.812;2023-05-07T08:53:08;24.40;78.10
71672;DHT22;67659;45.554;11.812;2023-05-07T08:55:34;24.50;77.90
71672;DHT22;67659;45.554;11.812;2023-05-07T08:58:01;24.40;78.00
71672;DHT22;67659;45.554;11.812;2023-05-07T09:00:27;24.50;78.40
71672;DHT22;67659;45.554;11.812;2023-05-07T09:02:53;24.50;78.30
71672;DHT22;67659;45.554;11.812;2023-05-07T09:05:20;24.50;78.10
71672;DHT22;67659;45.554;11.812;2023-05-07T09:07:46;24.50;78.10
71672;DHT22;67659;45.554;11.812;2023-05-07T09:10:13;24.50;78.20
71672;DHT22;67659;45.554;11.812;2023-05-07T09:12:40;24.40;78.10
71672;DHT22;67659;45.554;11.812;2023-05-07T09:15:07;24.50;78.00
71672;DHT22;67659;45.554;11.812;2023-05-07T09:17:33;24.50;77.90
71672;DHT22;67659;45.554;11.812;2023-05-07T09:20:04;24.50;78.00
71672;DHT22;67659;45.554;11.812;2023-05-07T09:22:32;24.50;78.20
71672;DHT22;67659;45.554;11.812;2023-05-07T09:24:58;24.50;77.90
71672;DHT22;67659;45.554;11.812;2023-05-07T09:27:25;24.50;78.00
71672;DHT22;67659;45.554;11.812;2023-05-07T09:29:52;24.60;78.10
71672;DHT22;67659;45.554;11.812;2023-05-07T09:32:18;24.50;78.10
71672;DHT22;67659;45.554;11.812;2023-05-07T09:34:44;24.60;78.10
71672;DHT22;67659;45.554;11.812;2023-05-07T09:37:12;24.60;78.00
71672;DHT22;67659;45.554;11.812;2023-05-07T09:39:48;24.60;78.10
71672;DHT22;67659;45.554;11.812;2023-05-07T09:42:14;24.50;78.40
71672;DHT22;67659;45.554;11.812;2023-05-07T09:44:41;24.60;78.30
71672;DHT22;67659;45.554;11.812;2023-05-07T09:47:08;24.60;78.20
71672;DHT22;67659;45.554;11.812;2023-05-07T09:49:39;24.60;78.30
71672;DHT22;67659;45.554;11.812;2023-05-07T09:52:07;24.60;78.30
71672;DHT22;67659;45.554;11.812;2023-05-07T09:54:36;24.70;78.30
71672;DHT22;67659;45.554;11.812;2023-05-07T09:57:05;24.70;78.60
71672;DHT22;67659;45.554;11.812;2023-05-07T09:59:32;24.60;78.60
71672;DHT22;67659;45.554;11.812;2023-05-07T10:02:00;24.70;78.60
71672;DHT22;67659;45.554;11.812;2023-05-07T10:04:27;24.60;78.50
71672;DHT22;67659;45.554;11.812;2023-05-07T10:06:54;24.70;78.70
71672;DHT22;67659;45.554;11.812;2023-05-07T10:09:21;24.70;79.20
71672;DHT22;67659;45.554;11.812;2023-05-07T10:11:49;24.70;79.00
71672;DHT22;67659;45.554;11.812;2023-05-07T10:14:17;24.70;79.50
71672;DHT22;67659;45.554;11.812;2023-05-07T10:16:43;24.70;80.00
71672;DHT22;67659;45.554;11.812;2023-05-07T10:19:10;24.70;79.90
71672;DHT22;67659;45.554;11.812;2023-05-07T10:21:37;24.70;80.20
71672;DHT22;67659;45.554;11.812;2023-05-07T10:24:08;24.70;80.40
71672;DHT22;67659;45.554;11.812;2023-05-07T10:26:43;24.70;81.10
71672;DHT22;67659;45.554;11.812;2023-05-07T10:29:18;24.70;81.10
71672;DHT22;67659;45.554;11.812;2023-05-07T10:32:02;24.70;81.50
71672;DHT22;67659;45.554;11.812;2023-05-07T10:34:36;24.80;81.80
71672;DHT22;67659;45.554;11.812;2023-05-07T10:37:06;24.80;81.50
71672;DHT22;67659;45.554;11.812;2023-05-07T10:39:32;24.80;81.30
71672;DHT22;67659;45.554;11.812;2023-05-07T10:42:08;24.70;81.40
71672;DHT22;67659;45.554;11.812;2023-05-07T10:44:35;24.80;81.90
71672;DHT22;67659;45.554;11.812;2023-05-07T10:47:12;24.80;81.50
71672;DHT22;67659;45.554;11.812;2023-05-07T10:52:44;24.80;81.80
71672;DHT22;67659;45.554;11.812;2023-05-07T10:55:20;24.80;81.50
71672;DHT22;67659;45.554;11.812;2023-05-07T10:57:47;24.90;82.10
71672;DHT22;67659;45.554;11.812;2023-05-07T11:00:41;24.80;81.40
71672;DHT22;67659;45.554;11.812;2023-05-07T11:03:08;24.80;81.90
71672;DHT22;67659;45.554;11.812;2023-05-07T11:05:39;24.90;81.60
71672;DHT22;67659;45.554;11.812;2023-05-07T11:08:08;24.80;81.70
71672;DHT22;67659;45.554;11.812;2023-05-07T11:10:49;24.90;81.80
71672;DHT22;67659;45.554;11.812;2023-05-07T11:13:15;24.90;81.80
71672;DHT22;67659;45.554;11.812;2023-05-07T11:15:45;24.90;81.60
71672;DHT22;67659;45.554;11.812;2023-05-07T11:18:13;24.80;81.60
71672;DHT22;67659;45.554;11.812;2023-05-07T11:20:50;24.90;81.60
71672;DHT22;67659;45.554;11.812;2023-05-07T11:26:15;24.90;81.60
71672;DHT22;67659;45.554;11.812;2023-05-07T11:28:43;24.90;81.20
71672;DHT22;67659;45.554;11.812;2023-05-07T11:31:10;24.90;81.30
71672;DHT22;67659;45.554;11.812;2023-05-07T11:33:36;25.00;81.30
71672;DHT22;67659;45.554;11.812;2023-05-07T11:36:05;24.90;81.30
71672;DHT22;67659;45.554;11.812;2023-05-07T11:38:36;25.00;81.10
71672;DHT22;67659;45.554;11.812;2023-05-07T11:41:03;25.00;81.10
71672;DHT22;67659;45.554;11.812;2023-05-07T11:43:32;25.00;81.00
71672;DHT22;67659;45.554;11.812;2023-05-07T11:46:09;24.90;81.00
71672;DHT22;67659;45.554;11.812;2023-05-07T11:48:36;24.90;81.00
71672;DHT22;67659;45.554;11.812;2023-05-07T11:51:04;25.00;80.90
71672;DHT22;67659;45.554;11.812;2023-05-07T11:53:39;25.00;80.90
71672;DHT22;67659;45.554;11.812;2023-05-07T11:56:09;25.00;80.70
71672;DHT22;67659;45.554;11.812;2023-05-07T11:58:39;25.00;80.80
71672;DHT22;67659;45.554;11.812;2023-05-07T12:01:08;25.00;80.70
71672;DHT22;67659;45.554;11.812;2023-05-07T12:03:37;24.90;80.70
71672;DHT22;67659;45.554;11.812;2023-05-07T12:06:06;25.00;80.70
71672;DHT22;67659;45.554;11.812;2023-05-07T12:08:36;25.00;80.60
71672;DHT22;67659;45.554;11.812;2023-05-07T12:11:22;25.00;80.60
71672;DHT22;67659;45.554;11.812;2023-05-07T12:13:53;25.00;80.20
71672;DHT22;67659;45.554;11.812;2023-05-07T12:16:36;25.00;79.90
71672;DHT22;67659;45.554;11.812;2023-05-07T12:19:02;25.00;79.60
71672;DHT22;67659;45.554;11.812;2023-05-07T12:21:29;25.00;79.60
71672;DHT22;67659;45.554;11.812;2023-05-07T12:23:57;25.00;79.70
71672;DHT22;67659;45.554;11.812;2023-05-07T12:26:24;25.00;79.60
71672;DHT22;67659;45.554;11.812;2023-05-07T12:28:50;25.00;79.90
71672;DHT22;67659;45.554;11.812;2023-05-07T12:31:20;24.90;79.80
71672;DHT22;67659;45.554;11.812;2023-05-07T12:33:46;25.00;79.80
71672;DHT22;67659;45.554;11.812;2023-05-07T12:36:13;25.00;79.70
71672;DHT22;67659;45.554;11.812;2023-05-07T12:38:40;24.90;79.90
71672;DHT22;67659;45.554;11.812;2023-05-07T12:41:08;25.00;79.70
71672;DHT22;67659;45.554;11.812;2023-05-07T12:43:34;25.00;79.90
71672;DHT22;67659;45.554;11.812;2023-05-07T12:46:03;25.00;80.00
71672;DHT22;67659;45.554;11.812;2023-05-07T12:48:37;25.00;79.90
71672;DHT22;67659;45.554;11.812;2023-05-07T12:51:06;25.00;80.00
71672;DHT22;67659;45.554;11.812;2023-05-07T12:53:33;25.00;79.80
71672;DHT22;67659;45.554;11.812;2023-05-07T12:55:59;25.00;79.80
71672;DHT22;67659;45.554;11.812;2023-05-07T12:58:29;25.00;79.60
71672;DHT22;67659;45.554;11.812;2023-05-07T13:00:57;25.00;79.80
71672;DHT22;67659;45.554;11.812;2023-05-07T13:03:28;25.00;79.90
71672;DHT22;67659;45.554;11.812;2023-05-07T13:08:34;25.00;79.60
71672;DHT22;67659;45.554;11.812;2023-05-07T13:11:01;25.10;79.80
71672;DHT22;67659;45.554;11.812;2023-05-07T13:13:30;24.90;80.10
71672;DHT22;67659;45.554;11.812;2023-05-07T13:15:59;25.00;79.90
71672;DHT22;67659;45.554;11.812;2023-05-07T13:18:26;25.00;80.00
71672;DHT22;67659;45.554;11.812;2023-05-07T13:20:53;25.00;80.00
71672;DHT22;67659;45.554;11.812;2023-05-07T13:23:19;25.10;80.00
71672;DHT22;67659;45.554;11.812;2023-05-07T13:25:45;25.10;79.90
71672;DHT22;67659;45.554;11.812;2023-05-07T13:28:11;25.00;80.00
71672;DHT22;67659;45.554;11.812;2023-05-07T13:30:41;25.00;79.90
71672;DHT22;67659;45.554;11.812;2023-05-07T13:33:07;25.00;79.80
71672;DHT22;67659;45.554;11.812;2023-05-07T13:35:34;25.10;79.70
71672;DHT22;67659;45.554;11.812;2023-05-07T13:38:00;25.00;79.90
71672;DHT22;67659;45.554;11.812;2023-05-07T13:40:26;25.10;79.80
71672;DHT22;67659;45.554;11.812;2023-05-07T13:42:53;25.00;80.10
71672;DHT22;67659;45.554;11.812;2023-05-07T13:45:19;25.10;80.10
71672;DHT22;67659;45.554;11.812;2023-05-07T13:47:46;25.10;80.00
71672;DHT22;67659;45.554;11.812;2023-05-07T13:50:12;25.10;80.10
71672;DHT22;67659;45.554;11.812;2023-05-07T13:52:42;25.10;80.00
71672;DHT22;67659;45.554;11.812;2023-05-07T13:55:09;25.00;80.30
71672;DHT22;67659;45.554;11.812;2023-05-07T13:57:36;25.10;80.10
71672;DHT22;67659;45.554;11.812;2023-05-07T14:00:04;25.10;80.00
71672;DHT22;67659;45.554;11.812;2023-05-07T14:02:31;25.00;80.20
71672;DHT22;67659;45.554;11.812;2023-05-07T14:04:59;25.10;80.30
71672;DHT22;67659;45.554;11.812;2023-05-07T14:07:25;25.10;80.30
71672;DHT22;67659;45.554;11.812;2023-05-07T14:09:51;25.10;80.30
71672;DHT22;67659;45.554;11.812;2023-05-07T14:12:17;25.00;80.50
71672;DHT22;67659;45.554;11.812;2023-05-07T14:14:46;25.10;80.00
71672;DHT22;67659;45.554;11.812;2023-05-07T14:17:12;25.10;80.30
71672;DHT22;67659;45.554;11.812;2023-05-07T14:19:38;25.10;80.30
71672;DHT22;67659;45.554;11.812;2023-05-07T14:22:04;25.10;80.40
71672;DHT22;67659;45.554;11.812;2023-05-07T14:24:30;25.00;80.50
71672;DHT22;67659;45.554;11.812;2023-05-07T14:26:56;25.10;80.40
71672;DHT22;67659;45.554;11.812;2023-05-07T14:29:22;25.10;80.50
71672;DHT22;67659;45.554;11.812;2023-05-07T14:31:48;25.10;80.50
71672;DHT22;67659;45.554;11.812;2023-05-07T14:34:14;25.10;80.20
71672;DHT22;67659;45.554;11.812;2023-05-07T14:36:40;25.10;80.20
71672;DHT22;67659;45.554;11.812;2023-05-07T14:39:07;25.10;80.40
71672;DHT22;67659;45.554;11.812;2023-05-07T14:41:35;25.10;80.30
71672;DHT22;67659;45.554;11.812;2023-05-07T14:44:01;25.10;80.40
71672;DHT22;67659;45.554;11.812;2023-05-07T14:46:30;25.20;80.40
71672;DHT22;67659;45.554;11.812;2023-05-07T14:48:57;25.10;80.30
71672;DHT22;67659;45.554;11.812;2023-05-07T14:51:23;25.20;80.20
71672;DHT22;67659;45.554;11.812;2023-05-07T14:53:50;25.20;80.10
71672;DHT22;67659;45.554;11.812;2023-05-07T14:56:16;25.10;80.50
71672;DHT22;67659;45.554;11.812;2023-05-07T14:58:43;25.10;80.30
71672;DHT22;67659;45.554;11.812;2023-05-07T15:01:09;25.10;80.10
71672;DHT22;67659;45.554;11.812;2023-05-07T15:03:35;25.10;80.40
71672;DHT22;67659;45.554;11.812;2023-05-07T15:06:02;25.10;80.30
71672;DHT22;67659;45.554;11.812;2023-05-07T15:08:28;25.10;80.30
71672;DHT22;67659;45.554;11.812;2023-05-07T15:10:54;25.10;80.20
71672;DHT22;67659;45.554;11.812;2023-05-07T15:13:21;25.10;80.00
71672;DHT22;67659;45.554;11.812;2023-05-07T15:15:47;25.10;80.20
71672;DHT22;67659;45.554;11.812;2023-05-07T15:18:14;25.10;80.20
71672;DHT22;67659;45.554;11.812;2023-05-07T15:20:41;25.10;80.40
71672;DHT22;67659;45.554;11.812;2023-05-07T15:23:07;25.10;80.20
71672;DHT22;67659;45.554;11.812;2023-05-07T15:25:44;25.10;80.30